sensor_id;sensor_type;location;lat;lon;timestamp;pressure;altitude;pressure_sealevel;temperature;humidity
20628;BME280;10473;42.734;24.258;2023-02-17T00:00:39;92609.75;;;2.06;68.38
20628;BME280;10473;42.734;24.258;2023-02-17T00:03:08;92605.88;;;2.03;68.08
20628;BME280;10473;42.734;24.258;2023-02-17T00:05:37;92612.81;;;2.08;67.61
20628;BME280;10473;42.734;24.258;2023-02-17T00:08:07;92603.22;;;1.95;68.18
20628;BME280;10473;42.734;24.258;2023-02-17T00:10:35;92609.00;;;1.92;68.05
20628;BME280;10473;42.734;24.258;2023-02-17T00:13:02;92607.25;;;1.87;68.73
20628;BME280;10473;42.734;24.258;2023-02-17T00:15:30;92602.03;;;1.87;68.38
20628;BME280;10473;42.734;24.258;2023-02-17T00:17:58;92593.50;;;1.95;67.75
20628;BME280;10473;42.734;24.258;2023-02-17T00:20:27;92595.16;;;2.05;67.52
20628;BME280;10473;42.734;24.258;2023-02-17T00:22:55;92592.22;;;2.06;68.13
20628;BME280;10473;42.734;24.258;2023-02-17T00:25:25;92594.66;;;2.03;67.79
20628;BME280;10473;42.734;24.258;2023-02-17T00:27:52;92593.56;;;2.03;68.32
20628;BME280;10473;42.734;24.258;2023-02-17T00:30:20;92589.66;;;1.92;67.87
20628;BME280;10473;42.734;24.258;2023-02-17T00:32:48;92589.66;;;1.92;69.00
20628;BME280;10473;42.734;24.258;2023-02-17T00:35:15;92592.22;;;2.06;68.20
20628;BME280;10473;42.734;24.258;2023-02-17T00:37:43;92586.34;;;2.01;67.42
20628;BME280;10473;42.734;24.258;2023-02-17T00:40:11;92585.38;;;1.97;68.07
20628;BME280;10473;42.734;24.258;2023-02-17T00:42:40;92582.72;;;1.88;68.14
20628;BME280;10473;42.734;24.258;2023-02-17T00:45:08;92570.16;;;1.77;68.29
20628;BME280;10473;42.734;24.258;2023-02-17T00:47:36;92576.47;;;1.76;68.17
20628;BME280;10473;42.734;24.258;2023-02-17T00:50:05;92566.47;;;1.77;68.32
20628;BME280;10473;42.734;24.258;2023-02-17T00:52:33;92568.41;;;1.86;67.88
20628;BME280;10473;42.734;24.258;2023-02-17T00:55:01;92577.28;;;1.84;68.64
20628;BME280;10473;42.734;24.258;2023-02-17T00:57:28;92573.84;;;1.76;68.91
20628;BME280;10473;42.734;24.258;2023-02-17T00:59:59;92580.59;;;1.77;68.00
20628;BME280;10473;42.734;24.258;2023-02-17T01:02:26;92572.28;;;1.74;68.08
20628;BME280;10473;42.734;24.258;2023-02-17T01:04:54;92556.84;;;1.64;67.79
20628;BME280;10473;42.734;24.258;2023-02-17T01:07:21;92560.06;;;1.83;68.32
20628;BME280;10473;42.734;24.258;2023-02-17T01:09:49;92560.91;;;1.92;67.37
20628;BME280;10473;42.734;24.258;2023-02-17T01:12:17;92548.44;;;1.89;67.45
20628;BME280;10473;42.734;24.258;2023-02-17T01:14:45;92564.75;;;1.73;69.07
20628;BME280;10473;42.734;24.258;2023-02-17T01:17:14;92550.13;;;1.72;67.93
20628;BME280;10473;42.734;24.258;2023-02-17T01:19:41;92547.34;;;1.68;68.16
20628;BME280;10473;42.734;24.258;2023-02-17T01:22:09;92546.38;;;1.64;68.31
20628;BME280;10473;42.734;24.258;2023-02-17T01:24:37;92544.34;;;1.75;67.81
20628;BME280;10473;42.734;24.258;2023-02-17T01:27:05;92542.00;;;1.52;69.38
20628;BME280;10473;42.734;24.258;2023-02-17T01:29:33;92541.38;;;1.68;68.17
20628;BME280;10473;42.734;24.258;2023-02-17T01:32:03;92543.44;;;1.79;67.52
20628;BME280;10473;42.734;24.258;2023-02-17T01:34:32;92543.38;;;1.71;68.34
20628;BME280;10473;42.734;24.258;2023-02-17T01:37:00;92539.06;;;1.67;68.44
20628;BME280;10473;42.734;24.258;2023-02-17T01:39:27;92543.56;;;1.74;67.73
20628;BME280;10473;42.734;24.258;2023-02-17T01:41:55;92546.59;;;1.54;68.73
20628;BME280;10473;42.734;24.258;2023-02-17T01:44:24;92546.44;;;1.51;68.63
20628;BME280;10473;42.734;24.258;2023-02-17T01:46:53;92543.41;;;1.58;68.35
20628;BME280;10473;42.734;24.258;2023-02-17T01:49:30;92551.16;;;1.63;68.37
20628;BME280;10473;42.734;24.258;2023-02-17T01:52:07;92541.56;;;1.72;67.61
20628;BME280;10473;42.734;24.258;2023-02-17T01:54:39;92546.16;;;1.74;67.43
20628;BME280;10473;42.734;24.258;2023-02-17T01:57:08;92542.19;;;1.77;68.29
20628;BME280;10473;42.734;24.258;2023-02-17T01:59:39;92536.44;;;1.88;67.01
20628;BME280;10473;42.734;24.258;2023-02-17T02:02:07;92540.97;;;1.97;66.77
20628;BME280;10473;42.734;24.258;2023-02-17T02:04:38;92544.63;;;1.73;68.08
20628;BME280;10473;42.734;24.258;2023-02-17T02:07:14;92547.69;;;1.89;66.95
20628;BME280;10473;42.734;24.258;2023-02-17T02:09:48;92543.13;;;1.95;66.87
20628;BME280;10473;42.734;24.258;2023-02-17T02:12:19;92537.13;;;1.94;66.27
20628;BME280;10473;42.734;24.258;2023-02-17T02:14:48;92540.31;;;1.91;66.75
20628;BME280;10473;42.734;24.258;2023-02-17T02:17:24;92533.72;;;1.93;66.33
20628;BME280;10473;42.734;24.258;2023-02-17T02:23:15;92542.44;;;1.89;66.68
20628;BME280;10473;42.734;24.258;2023-02-17T02:28:55;92536.69;;;1.78;67.22
20628;BME280;10473;42.734;24.258;2023-02-17T02:31:39;92530.16;;;1.89;65.81
20628;BME280;10473;42.734;24.258;2023-02-17T02:34:15;92530.47;;;1.88;66.64
20628;BME280;10473;42.734;24.258;2023-02-17T02:36:46;92529.16;;;1.99;65.82
20628;BME280;10473;42.734;24.258;2023-02-17T02:39:19;92527.44;;;1.95;66.36
20628;BME280;10473;42.734;24.258;2023-02-17T02:41:49;92531.78;;;1.99;65.65
20628;BME280;10473;42.734;24.258;2023-02-17T02:44:20;92540.28;;;2.05;65.71
20628;BME280;10473;42.734;24.258;2023-02-17T02:46:55;92540.41;;;2.00;66.00
20628;BME280;10473;42.734;24.258;2023-02-17T02:49:26;92530.41;;;2.02;65.85
20628;BME280;10473;42.734;24.258;2023-02-17T02:51:59;92534.25;;;2.04;65.41
20628;BME280;10473;42.734;24.258;2023-02-17T02:54:42;92535.09;;;1.91;66.40
20628;BME280;10473;42.734;24.258;2023-02-17T02:57:20;92531.22;;;1.88;65.92
20628;BME280;10473;42.734;24.258;2023-02-17T03:00:05;92540.59;;;1.89;66.87
20628;BME280;10473;42.734;24.258;2023-02-17T03:02:43;92540.81;;;1.93;66.45
20628;BME280;10473;42.734;24.258;2023-02-17T03:05:17;92541.44;;;1.98;65.89
20628;BME280;10473;42.734;24.258;2023-02-17T03:07:54;92535.28;;;1.95;65.79
20628;BME280;10473;42.734;24.258;2023-02-17T03:10:23;92516.50;;;1.71;65.53
20628;BME280;10473;42.734;24.258;2023-02-17T03:12:51;92536.91;;;1.68;67.43
20628;BME280;10473;42.734;24.258;2023-02-17T03:15:21;92527.88;;;1.74;66.67
20628;BME280;10473;42.734;24.258;2023-02-17T03:17:50;92533.00;;;1.79;66.82
20628;BME280;10473;42.734;24.258;2023-02-17T03:20:19;92530.06;;;1.95;66.16
20628;BME280;10473;42.734;24.258;2023-02-17T03:22:48;92530.06;;;1.95;66.24
20628;BME280;10473;42.734;24.258;2023-02-17T03:25:16;92528.56;;;1.80;66.36
20628;BME280;10473;42.734;24.258;2023-02-17T03:27:44;92534.13;;;1.87;65.92
20628;BME280;10473;42.734;24.258;2023-02-17T03:30:13;92532.19;;;1.92;65.67
20628;BME280;10473;42.734;24.258;2023-02-17T03:32:41;92541.25;;;1.95;65.77
20628;BME280;10473;42.734;24.258;2023-02-17T03:35:09;92543.66;;;1.83;65.84
20628;BME280;10473;42.734;24.258;2023-02-17T03:37:39;92546.31;;;1.92;65.52
20628;BME280;10473;42.734;24.258;2023-02-17T03:40:08;92543.66;;;1.83;65.54
20628;BME280;10473;42.734;24.258;2023-02-17T03:42:36;92549.78;;;1.87;65.39
20628;BME280;10473;42.734;24.258;2023-02-17T03:45:04;92545.00;;;1.81;65.25
20628;BME280;10473;42.734;24.258;2023-02-17T03:47:32;92548.34;;;1.95;65.27
20628;BME280;10473;42.734;24.258;2023-02-17T03:50:00;92549.94;;;2.04;65.26
20628;BME280;10473;42.734;24.258;2023-02-17T03:52:27;92544.16;;;1.93;65.55
20628;BME280;10473;42.734;24.258;2023-02-17T03:54:56;92539.91;;;1.98;64.86
20628;BME280;10473;42.734;24.258;2023-02-17T03:57:24;92541.25;;;1.95;65.57
20628;BME280;10473;42.734;24.258;2023-02-17T03:59:52;92531.50;;;1.65;66.30
20628;BME280;10473;42.734;24.258;2023-02-17T04:02:19;92540.47;;;1.73;66.12
20628;BME280;10473;42.734;24.258;2023-02-17T04:04:47;92537.28;;;1.76;66.39
20628;BME280;10473;42.734;24.258;2023-02-17T04:07:15;92529.75;;;1.74;66.34
20628;BME280;10473;42.734;24.258;2023-02-17T04:09:43;92536.50;;;1.75;66.50
20628;BME280;10473;42.734;24.258;2023-02-17T04:12:12;92538.72;;;1.46;67.02
20628;BME280;10473;42.734;24.258;2023-02-17T04:14:40;92535.84;;;1.69;66.85
20628;BME280;10473;42.734;24.258;2023-02-17T04:17:07;92529.97;;;1.64;66.32
20628;BME280;10473;42.734;24.258;2023-02-17T04:19:35;92531.63;;;1.82;65.59
20628;BME280;10473;42.734;24.258;2023-02-17T04:22:03;92534.81;;;1.57;66.30
20628;BME280;10473;42.734;24.258;2023-02-17T04:24:34;92535.94;;;1.64;66.91
20628;BME280;10473;42.734;24.258;2023-02-17T04:27:02;92531.66;;;1.47;67.24
20628;BME280;10473;42.734;24.258;2023-02-17T04:29:32;92535.00;;;1.61;67.47
20628;BME280;10473;42.734;24.258;2023-02-17T04:32:00;92523.31;;;1.58;66.59
20628;BME280;10473;42.734;24.258;2023-02-17T04:34:27;92535.72;;;1.74;66.76
20628;BME280;10473;42.734;24.258;2023-02-17T04:36:55;92536.22;;;1.77;66.51
20628;BME280;10473;42.734;24.258;2023-02-17T04:39:23;92535.50;;;1.84;66.43
20628;BME280;10473;42.734;24.258;2023-02-17T04:41:50;92536.28;;;1.85;66.00
20628;BME280;10473;42.734;24.258;2023-02-17T04:44:18;92541.22;;;1.87;65.89
20628;BME280;10473;42.734;24.258;2023-02-17T04:46:47;92541.44;;;1.98;66.19
20628;BME280;10473;42.734;24.258;2023-02-17T04:49:15;92508.00;;;1.87;65.54
20628;BME280;10473;42.734;24.258;2023-02-17T04:51:42;92539.94;;;2.06;64.83
20628;BME280;10473;42.734;24.258;2023-02-17T04:54:10;92537.31;;;2.20;64.74
20628;BME280;10473;42.734;24.258;2023-02-17T04:56:38;92539.91;;;2.20;64.94
20628;BME280;10473;42.734;24.258;2023-02-17T04:59:06;92537.63;;;2.27;64.70
20628;BME280;10473;42.734;24.258;2023-02-17T05:01:33;92532.41;;;2.27;64.34
20628;BME280;10473;42.734;24.258;2023-02-17T05:04:03;92540.97;;;1.97;65.38
20628;BME280;10473;42.734;24.258;2023-02-17T05:06:30;92537.78;;;2.00;65.50
20628;BME280;10473;42.734;24.258;2023-02-17T05:08:58;92539.53;;;2.13;64.92
20628;BME280;10473;42.734;24.258;2023-02-17T05:11:26;92546.19;;;2.18;64.88
20628;BME280;10473;42.734;24.258;2023-02-17T05:13:53;92552.19;;;2.19;65.06
20628;BME280;10473;42.734;24.258;2023-02-17T05:16:21;92554.94;;;2.14;65.53
20628;BME280;10473;42.734;24.258;2023-02-17T05:18:49;92555.50;;;2.11;65.42
20628;BME280;10473;42.734;24.258;2023-02-17T05:21:18;92555.38;;;2.16;65.46
20628;BME280;10473;42.734;24.258;2023-02-17T05:23:46;92553.91;;;2.02;65.40
20628;BME280;10473;42.734;24.258;2023-02-17T05:26:13;92541.06;;;1.69;67.43
20628;BME280;10473;42.734;24.258;2023-02-17T05:28:42;92546.50;;;1.95;66.10
20628;BME280;10473;42.734;24.258;2023-02-17T05:31:10;92551.84;;;2.12;65.70
20628;BME280;10473;42.734;24.258;2023-02-17T05:33:38;92554.75;;;2.11;65.79
20628;BME280;10473;42.734;24.258;2023-02-17T05:36:08;92545.91;;;1.98;65.51
20628;BME280;10473;42.734;24.258;2023-02-17T05:38:38;92556.88;;;2.08;65.99
20628;BME280;10473;42.734;24.258;2023-02-17T05:41:06;92548.00;;;2.10;66.28
20628;BME280;10473;42.734;24.258;2023-02-17T05:43:34;92561.88;;;2.18;65.80
20628;BME280;10473;42.734;24.258;2023-02-17T05:46:02;92562.25;;;2.26;65.14
20628;BME280;10473;42.734;24.258;2023-02-17T05:48:31;92559.78;;;2.29;64.51
20628;BME280;10473;42.734;24.258;2023-02-17T05:50:58;92566.97;;;2.46;64.09
20628;BME280;10473;42.734;24.258;2023-02-17T05:53:26;92571.00;;;2.52;63.85
20628;BME280;10473;42.734;24.258;2023-02-17T05:55:56;92566.19;;;2.45;63.76
20628;BME280;10473;42.734;24.258;2023-02-17T05:58:24;92573.16;;;2.50;64.81
20628;BME280;10473;42.734;24.258;2023-02-17T06:00:52;92586.81;;;2.69;63.91
20628;BME280;10473;42.734;24.258;2023-02-17T06:03:20;92587.13;;;2.76;64.04
20628;BME280;10473;42.734;24.258;2023-02-17T06:05:47;92592.56;;;2.88;63.40
20628;BME280;10473;42.734;24.258;2023-02-17T06:08:15;92591.13;;;2.73;63.64
20628;BME280;10473;42.734;24.258;2023-02-17T06:10:43;92593.22;;;2.93;63.60
20628;BME280;10473;42.734;24.258;2023-02-17T06:13:12;92595.16;;;2.79;63.81
20628;BME280;10473;42.734;24.258;2023-02-17T06:15:39;92588.41;;;2.87;64.13
20628;BME280;10473;42.734;24.258;2023-02-17T06:18:07;92607.94;;;3.11;62.92
20628;BME280;10473;42.734;24.258;2023-02-17T06:20:35;92606.75;;;3.26;62.34
20628;BME280;10473;42.734;24.258;2023-02-17T06:23:02;92600.31;;;3.32;62.15
20628;BME280;10473;42.734;24.258;2023-02-17T06:25:30;92586.69;;;3.13;62.59
20628;BME280;10473;42.734;24.258;2023-02-17T06:27:58;92592.59;;;3.27;62.23
20628;BME280;10473;42.734;24.258;2023-02-17T06:30:27;92609.31;;;3.48;61.76
20628;BME280;10473;42.734;24.258;2023-02-17T06:32:55;92610.88;;;3.66;61.48
20628;BME280;10473;42.734;24.258;2023-02-17T06:35:23;92616.13;;;3.74;61.67
20628;BME280;10473;42.734;24.258;2023-02-17T06:37:51;92614.44;;;3.78;61.69
20628;BME280;10473;42.734;24.258;2023-02-17T06:40:19;92615.09;;;3.84;62.04
20628;BME280;10473;42.734;24.258;2023-02-17T06:42:47;92612.47;;;4.01;62.04
20628;BME280;10473;42.734;24.258;2023-02-17T06:45:14;92622.22;;;4.17;60.60
20628;BME280;10473;42.734;24.258;2023-02-17T06:47:44;92612.34;;;4.14;61.16
20628;BME280;10473;42.734;24.258;2023-02-17T06:50:11;92607.41;;;4.13;59.36
20628;BME280;10473;42.734;24.258;2023-02-17T06:52:40;92617.13;;;4.38;58.52
20628;BME280;10473;42.734;24.258;2023-02-17T06:55:08;92622.06;;;4.48;59.23
20628;BME280;10473;42.734;24.258;2023-02-17T06:57:38;92621.91;;;4.53;59.78
20628;BME280;10473;42.734;24.258;2023-02-17T07:00:06;92609.06;;;4.60;58.97
20628;BME280;10473;42.734;24.258;2023-02-17T07:02:36;92626.38;;;4.61;59.09
20628;BME280;10473;42.734;24.258;2023-02-17T07:05:06;92618.03;;;4.76;59.83
20628;BME280;10473;42.734;24.258;2023-02-17T07:07:34;92618.91;;;4.97;59.23
20628;BME280;10473;42.734;24.258;2023-02-17T07:10:02;92629.41;;;4.97;58.47
20628;BME280;10473;42.734;24.258;2023-02-17T07:12:29;92628.56;;;5.22;58.25
20628;BME280;10473;42.734;24.258;2023-02-17T07:14:57;92623.94;;;5.27;58.18
20628;BME280;10473;42.734;24.258;2023-02-17T07:17:25;92627.00;;;5.29;57.07
20628;BME280;10473;42.734;24.258;2023-02-17T07:19:52;92634.09;;;5.37;56.20
20628;BME280;10473;42.734;24.258;2023-02-17T07:22:22;92634.16;;;5.58;55.85
20628;BME280;10473;42.734;24.258;2023-02-17T07:24:50;92634.56;;;5.68;56.04
20628;BME280;10473;42.734;24.258;2023-02-17T07:27:18;92640.41;;;5.74;55.68
20628;BME280;10473;42.734;24.258;2023-02-17T07:29:45;92634.69;;;5.72;54.94
20628;BME280;10473;42.734;24.258;2023-02-17T07:32:13;92642.25;;;5.82;54.51
20628;BME280;10473;42.734;24.258;2023-02-17T07:34:41;92638.88;;;5.73;54.14
20628;BME280;10473;42.734;24.258;2023-02-17T07:37:09;92645.50;;;5.41;54.63
20628;BME280;10473;42.734;24.258;2023-02-17T07:39:38;92641.72;;;5.59;55.84
20628;BME280;10473;42.734;24.258;2023-02-17T07:42:06;92651.63;;;5.62;54.31
20628;BME280;10473;42.734;24.258;2023-02-17T07:44:35;92643.75;;;5.54;55.13
20628;BME280;10473;42.734;24.258;2023-02-17T07:47:02;92651.63;;;5.54;55.59
20628;BME280;10473;42.734;24.258;2023-02-17T07:49:30;92650.38;;;5.60;56.32
20628;BME280;10473;42.734;24.258;2023-02-17T07:51:58;92651.75;;;5.66;55.98
20628;BME280;10473;42.734;24.258;2023-02-17T07:54:26;92657.34;;;5.56;55.44
20628;BME280;10473;42.734;24.258;2023-02-17T07:56:55;92665.63;;;5.75;54.81
20628;BME280;10473;42.734;24.258;2023-02-17T07:59:23;92660.31;;;5.92;53.84
20628;BME280;10473;42.734;24.258;2023-02-17T08:01:50;92672.34;;;5.93;54.92
20628;BME280;10473;42.734;24.258;2023-02-17T08:04:19;92666.69;;;5.74;55.33
20628;BME280;10473;42.734;24.258;2023-02-17T08:06:46;92663.28;;;5.82;53.43
20628;BME280;10473;42.734;24.258;2023-02-17T08:09:14;92667.22;;;5.67;54.73
20628;BME280;10473;42.734;24.258;2023-02-17T08:12:00;92671.25;;;5.56;55.21
20628;BME280;10473;42.734;24.258;2023-02-17T08:14:45;92664.00;;;5.53;55.95
20628;BME280;10473;42.734;24.258;2023-02-17T08:17:13;92669.22;;;5.62;55.15
20628;BME280;10473;42.734;24.258;2023-02-17T08:19:41;92673.03;;;5.73;55.38
20628;BME280;10473;42.734;24.258;2023-02-17T08:22:08;92650.25;;;5.48;55.30
20628;BME280;10473;42.734;24.258;2023-02-17T08:24:36;92677.69;;;5.76;54.29
20628;BME280;10473;42.734;24.258;2023-02-17T08:27:05;92665.50;;;5.63;54.99
20628;BME280;10473;42.734;24.258;2023-02-17T08:29:33;92672.41;;;5.76;55.29
20628;BME280;10473;42.734;24.258;2023-02-17T08:32:02;92672.56;;;5.79;55.73
20628;BME280;10473;42.734;24.258;2023-02-17T08:34:30;92669.19;;;6.08;54.51
20628;BME280;10473;42.734;24.258;2023-02-17T08:36:59;92678.97;;;6.28;55.14
20628;BME280;10473;42.734;24.258;2023-02-17T08:39:26;92684.75;;;7.36;54.32
20628;BME280;10473;42.734;24.258;2023-02-17T08:41:55;92678.72;;;8.40;49.43
20628;BME280;10473;42.734;24.258;2023-02-17T08:44:24;92680.25;;;9.47;48.31
20628;BME280;10473;42.734;24.258;2023-02-17T08:46:52;92685.28;;;10.61;45.62
20628;BME280;10473;42.734;24.258;2023-02-17T08:49:21;92683.22;;;11.84;41.95
20628;BME280;10473;42.734;24.258;2023-02-17T08:51:50;92686.53;;;13.23;40.66
20628;BME280;10473;42.734;24.258;2023-02-17T08:54:18;92683.69;;;14.55;36.66
20628;BME280;10473;42.734;24.258;2023-02-17T08:56:46;92679.69;;;15.46;33.59
20628;BME280;10473;42.734;24.258;2023-02-17T08:59:14;92691.00;;;16.85;32.55
20628;BME280;10473;42.734;24.258;2023-02-17T09:01:43;92693.94;;;17.50;30.28
20628;BME280;10473;42.734;24.258;2023-02-17T09:04:12;92688.28;;;18.20;30.32
20628;BME280;10473;42.734;24.258;2023-02-17T09:06:43;92681.13;;;19.05;28.28
20628;BME280;10473;42.734;24.258;2023-02-17T09:09:13;92682.13;;;19.58;27.12
20628;BME280;10473;42.734;24.258;2023-02-17T09:11:41;92696.28;;;19.96;26.31
20628;BME280;10473;42.734;24.258;2023-02-17T09:14:09;92681.44;;;18.70;27.62
20628;BME280;10473;42.734;24.258;2023-02-17T09:16:37;92694.31;;;19.70;28.16
20628;BME280;10473;42.734;24.258;2023-02-17T09:19:06;92693.50;;;20.86;26.88
20628;BME280;10473;42.734;24.258;2023-02-17T09:21:34;92693.50;;;20.86;26.30
20628;BME280;10473;42.734;24.258;2023-02-17T09:24:02;92691.75;;;22.23;25.55
20628;BME280;10473;42.734;24.258;2023-02-17T09:26:29;92684.09;;;22.21;25.25
20628;BME280;10473;42.734;24.258;2023-02-17T09:29:00;92692.66;;;22.71;25.12
20628;BME280;10473;42.734;24.258;2023-02-17T09:31:29;92695.13;;;23.30;23.36
20628;BME280;10473;42.734;24.258;2023-02-17T09:33:57;92687.13;;;23.99;23.85
20628;BME280;10473;42.734;24.258;2023-02-17T09:36:28;92693.50;;;23.77;23.01
20628;BME280;10473;42.734;24.258;2023-02-17T09:38:57;92691.22;;;23.75;23.23
20628;BME280;10473;42.734;24.258;2023-02-17T09:41:26;92680.84;;;24.68;22.46
20628;BME280;10473;42.734;24.258;2023-02-17T09:43:58;92680.16;;;25.02;21.57
20628;BME280;10473;42.734;24.258;2023-02-17T09:46:29;92680.16;;;25.27;21.53
20628;BME280;10473;42.734;24.258;2023-02-17T09:49:01;92680.50;;;25.63;21.96
20628;BME280;10473;42.734;24.258;2023-02-17T09:51:34;92666.19;;;25.03;21.12
20628;BME280;10473;42.734;24.258;2023-02-17T09:54:15;92666.69;;;25.70;21.33
20628;BME280;10473;42.734;24.258;2023-02-17T09:56:46;92670.47;;;25.73;20.95
20628;BME280;10473;42.734;24.258;2023-02-17T09:59:19;92663.50;;;26.27;20.48
20628;BME280;10473;42.734;24.258;2023-02-17T10:01:49;92676.72;;;25.82;20.88
20628;BME280;10473;42.734;24.258;2023-02-17T10:04:21;92659.09;;;25.31;20.78
20628;BME280;10473;42.734;24.258;2023-02-17T10:06:53;92657.09;;;24.85;20.98
20628;BME280;10473;42.734;24.258;2023-02-17T10:09:30;92664.69;;;24.65;21.98
20628;BME280;10473;42.734;24.258;2023-02-17T10:12:02;92661.41;;;24.32;22.96
20628;BME280;10473;42.734;24.258;2023-02-17T10:14:34;92651.44;;;24.92;22.58
20628;BME280;10473;42.734;24.258;2023-02-17T10:17:07;92609.59;;;23.77;22.88
20628;BME280;10473;42.734;24.258;2023-02-17T10:19:42;92643.47;;;25.35;22.44
20628;BME280;10473;42.734;24.258;2023-02-17T10:22:17;92648.25;;;24.06;22.88
20628;BME280;10473;42.734;24.258;2023-02-17T10:24:46;92640.88;;;25.53;21.77
20628;BME280;10473;42.734;24.258;2023-02-17T10:27:35;92637.34;;;25.99;22.21
20628;BME280;10473;42.734;24.258;2023-02-17T10:30:14;92632.50;;;25.26;22.26
20628;BME280;10473;42.734;24.258;2023-02-17T10:32:52;92643.06;;;26.53;21.83
20628;BME280;10473;42.734;24.258;2023-02-17T10:35:33;92641.16;;;25.89;21.50
20628;BME280;10473;42.734;24.258;2023-02-17T10:38:14;92605.44;;;25.91;21.62
20628;BME280;10473;42.734;24.258;2023-02-17T10:40:46;92615.53;;;26.42;21.42
20628;BME280;10473;42.734;24.258;2023-02-17T10:43:20;92605.16;;;25.76;21.33
20628;BME280;10473;42.734;24.258;2023-02-17T10:45:49;92615.53;;;26.12;21.41
20628;BME280;10473;42.734;24.258;2023-02-17T10:48:23;92611.16;;;26.14;21.87
20628;BME280;10473;42.734;24.258;2023-02-17T10:50:56;92598.09;;;25.23;21.16
20628;BME280;10473;42.734;24.258;2023-02-17T10:53:29;92596.72;;;25.96;20.58
20628;BME280;10473;42.734;24.258;2023-02-17T10:56:00;92577.34;;;25.63;21.38
20628;BME280;10473;42.734;24.258;2023-02-17T10:58:32;92585.13;;;26.26;20.64
20628;BME280;10473;42.734;24.258;2023-02-17T11:01:02;92582.56;;;27.91;19.76
20628;BME280;10473;42.734;24.258;2023-02-17T11:03:32;92570.66;;;26.07;19.81
20628;BME280;10473;42.734;24.258;2023-02-17T11:06:04;92578.31;;;27.45;18.91
20628;BME280;10473;42.734;24.258;2023-02-17T11:08:36;92582.06;;;26.24;18.22
20628;BME280;10473;42.734;24.258;2023-02-17T11:11:13;92569.56;;;27.86;17.40
20628;BME280;10473;42.734;24.258;2023-02-17T11:13:44;92558.28;;;28.20;16.44
20628;BME280;10473;42.734;24.258;2023-02-17T11:16:25;92568.03;;;27.49;17.33
20628;BME280;10473;42.734;24.258;2023-02-17T11:18:54;92573.47;;;26.25;17.01
20628;BME280;10473;42.734;24.258;2023-02-17T11:21:22;92547.34;;;25.67;17.91
20628;BME280;10473;42.734;24.258;2023-02-17T11:23:55;92528.69;;;24.66;19.17
20628;BME280;10473;42.734;24.258;2023-02-17T11:26:26;92531.34;;;24.20;18.49
20628;BME280;10473;42.734;24.258;2023-02-17T11:29:06;92518.44;;;22.76;20.11
20628;BME280;10473;42.734;24.258;2023-02-17T11:31:34;92476.41;;;22.59;19.63
20628;BME280;10473;42.734;24.258;2023-02-17T11:34:11;92534.81;;;22.21;20.54
20628;BME280;10473;42.734;24.258;2023-02-17T11:36:38;92533.72;;;21.67;20.78
20628;BME280;10473;42.734;24.258;2023-02-17T11:39:18;92541.78;;;21.12;19.67
20628;BME280;10473;42.734;24.258;2023-02-17T11:41:47;92543.88;;;22.46;19.50
20628;BME280;10473;42.734;24.258;2023-02-17T11:44:22;92563.03;;;23.69;19.43
20628;BME280;10473;42.734;24.258;2023-02-17T11:46:58;92553.09;;;22.93;18.39
20628;BME280;10473;42.734;24.258;2023-02-17T11:49:45;92528.63;;;22.84;19.03
20628;BME280;10473;42.734;24.258;2023-02-17T11:55:15;92535.66;;;22.66;18.99
20628;BME280;10473;42.734;24.258;2023-02-17T11:58:02;92527.44;;;21.73;20.01
20628;BME280;10473;42.734;24.258;2023-02-17T12:00:41;92517.69;;;22.27;19.80
20628;BME280;10473;42.734;24.258;2023-02-17T12:03:27;92504.19;;;22.27;19.07
20628;BME280;10473;42.734;24.258;2023-02-17T12:06:08;92524.75;;;20.95;21.15
20628;BME280;10473;42.734;24.258;2023-02-17T12:11:41;92525.34;;;21.61;20.20
20628;BME280;10473;42.734;24.258;2023-02-17T12:14:28;92508.13;;;21.20;20.57
20628;BME280;10473;42.734;24.258;2023-02-17T12:17:04;92526.97;;;21.00;20.67
20628;BME280;10473;42.734;24.258;2023-02-17T12:19:45;92524.56;;;21.45;20.20
20628;BME280;10473;42.734;24.258;2023-02-17T12:22:18;92515.72;;;21.25;20.30
20628;BME280;10473;42.734;24.258;2023-02-17T12:24:59;92523.38;;;21.46;20.48
20628;BME280;10473;42.734;24.258;2023-02-17T12:27:42;92521.94;;;21.22;20.58
20628;BME280;10473;42.734;24.258;2023-02-17T12:30:28;92496.41;;;21.46;20.54
20628;BME280;10473;42.734;24.258;2023-02-17T12:33:11;92520.38;;;20.82;21.00
20628;BME280;10473;42.734;24.258;2023-02-17T12:35:47;92499.31;;;19.85;22.15
20628;BME280;10473;42.734;24.258;2023-02-17T12:38:23;92502.78;;;19.59;22.64
20628;BME280;10473;42.734;24.258;2023-02-17T12:40:54;92493.97;;;18.95;22.58
20628;BME280;10473;42.734;24.258;2023-02-17T12:43:31;92515.38;;;18.68;23.93
20628;BME280;10473;42.734;24.258;2023-02-17T12:46:04;92513.31;;;18.46;23.68
20628;BME280;10473;42.734;24.258;2023-02-17T12:48:35;92515.72;;;17.82;23.39
20628;BME280;10473;42.734;24.258;2023-02-17T12:51:10;92510.44;;;17.75;23.42
20628;BME280;10473;42.734;24.258;2023-02-17T12:53:44;92460.41;;;17.55;25.03
20628;BME280;10473;42.734;24.258;2023-02-17T12:56:37;92502.41;;;17.72;24.12
20628;BME280;10473;42.734;24.258;2023-02-17T12:59:14;92489.78;;;17.69;24.11
20628;BME280;10473;42.734;24.258;2023-02-17T13:01:49;92495.81;;;17.83;25.10
20628;BME280;10473;42.734;24.258;2023-02-17T13:04:20;92488.09;;;17.92;24.40
20628;BME280;10473;42.734;24.258;2023-02-17T13:06:54;92491.34;;;17.66;24.54
20628;BME280;10473;42.734;24.258;2023-02-17T13:09:30;92512.38;;;16.96;25.22
20628;BME280;10473;42.734;24.258;2023-02-17T13:12:16;92503.28;;;16.72;25.21
20628;BME280;10473;42.734;24.258;2023-02-17T13:14:48;92437.75;;;15.77;26.03
20628;BME280;10473;42.734;24.258;2023-02-17T13:17:25;92490.41;;;16.15;25.83
20628;BME280;10473;42.734;24.258;2023-02-17T13:20:22;92483.19;;;16.05;26.06
20628;BME280;10473;42.734;24.258;2023-02-17T13:23:02;92485.84;;;15.91;25.96
20628;BME280;10473;42.734;24.258;2023-02-17T13:25:32;92490.44;;;15.90;26.03
20628;BME280;10473;42.734;24.258;2023-02-17T13:28:18;92498.44;;;15.73;25.66